sensor_id;sensor_type;location;lat;lon;timestamp;temperature;humidity
5457;DHT22;2751;49.802;9.944;2022-07-10T00:02:20;16.10;99.90
5457;DHT22;2751;49.802;9.944;2022-07-10T00:04:48;16.10;99.90
5457;DHT22;2751;49.802;9.944;2022-07-10T00:07:15;16.10;99.90
5457;DHT22;2751;49.802;9.944;2022-07-10T00:09:42;16.10;99.90
5457;DHT22;2751;49.802;9.944;2022-07-10T00:12:08;16.10;99.90
5457;DHT22;2751;49.802;9.944;2022-07-10T00:14:35;16.10;99.90
5457;DHT22;2751;49.802;9.944;2022-07-10T00:17:03;16.10;99.90
5457;DHT22;2751;49.802;9.944;2022-07-10T00:19:30;16.00;99.90
5457;DHT22;2751;49.802;9.944;2022-07-10T00:21:58;16.00;99.90
5457;DHT22;2751;49.802;9.944;2022-07-10T00:24:25;16.00;99.90
5457;DHT22;2751;49.802;9.944;2022-07-10T00:26:52;16.00;99.90
5457;DHT22;2751;49.802;9.944;2022-07-10T00:29:19;16.00;99.90
5457;DHT22;2751;49.802;9.944;2022-07-10T00:31:45;16.00;99.90
5457;DHT22;2751;49.802;9.944;2022-07-10T00:34:12;16.00;99.90
5457;DHT22;2751;49.802;9.944;2022-07-10T00:36:39;16.00;99.90
5457;DHT22;2751;49.802;9.944;2022-07-10T00:39:07;16.00;99.90
5457;DHT22;2751;49.802;9.944;2022-07-10T00:41:34;15.60;99.90
5457;DHT22;2751;49.802;9.944;2022-07-10T00:44:03;15.90;99.90
5457;DHT22;2751;49.802;9.944;2022-07-10T00:46:31;15.90;99.90
5457;DHT22;2751;49.802;9.944;2022-07-10T00:48:58;15.90;99.90
5457;DHT22;2751;49.802;9.944;2022-07-10T00:51:27;15.90;99.90
5457;DHT22;2751;49.802;9.944;2022-07-10T00:53:56;15.90;99.90
5457;DHT22;2751;49.802;9.944;2022-07-10T00:56:26;15.80;99.90
5457;DHT22;2751;49.802;9.944;2022-07-10T00:58:54;15.80;99.90
5457;DHT22;2751;49.802;9.944;2022-07-10T01:01:21;15.80;99.90
5457;DHT22;2751;49.802;9.944;2022-07-10T01:03:48;15.80;99.90
5457;DHT22;2751;49.802;9.944;2022-07-10T01:06:16;15.70;99.90
5457;DHT22;2751;49.802;9.944;2022-07-10T01:08:44;15.70;99.90
5457;DHT22;2751;49.802;9.944;2022-07-10T01:11:12;15.70;99.90
5457;DHT22;2751;49.802;9.944;2022-07-10T01:13:41;15.70;99.90
5457;DHT22;2751;49.802;9.944;2022-07-10T01:16:08;15.60;99.90
5457;DHT22;2751;49.802;9.944;2022-07-10T01:18:35;15.60;99.90
5457;DHT22;2751;49.802;9.944;2022-07-10T01:21:04;15.60;99.90
5457;DHT22;2751;49.802;9.944;2022-07-10T01:23:30;15.60;99.90
5457;DHT22;2751;49.802;9.944;2022-07-10T01:25:57;15.50;99.90
5457;DHT22;2751;49.802;9.944;2022-07-10T01:28:27;15.50;99.90
5457;DHT22;2751;49.802;9.944;2022-07-10T01:30:55;15.50;99.90
5457;DHT22;2751;49.802;9.944;2022-07-10T01:33:22;15.40;99.90
5457;DHT22;2751;49.802;9.944;2022-07-10T01:35:49;15.40;99.90
5457;DHT22;2751;49.802;9.944;2022-07-10T01:38:17;15.40;99.90
5457;DHT22;2751;49.802;9.944;2022-07-10T01:40:44;15.40;99.90
5457;DHT22;2751;49.802;9.944;2022-07-10T01:43:11;15.30;99.90
5457;DHT22;2751;49.802;9.944;2022-07-10T01:45:38;15.30;99.90
5457;DHT22;2751;49.802;9.944;2022-07-10T01:48:05;15.30;99.90
5457;DHT22;2751;49.802;9.944;2022-07-10T01:50:32;15.20;99.90
5457;DHT22;2751;49.802;9.944;2022-07-10T01:52:59;15.20;99.90
5457;DHT22;2751;49.802;9.944;2022-07-10T01:55:27;15.20;99.90
5457;DHT22;2751;49.802;9.944;2022-07-10T01:57:54;15.20;99.90
5457;DHT22;2751;49.802;9.944;2022-07-10T02:00:21;15.20;99.90
5457;DHT22;2751;49.802;9.944;2022-07-10T02:02:49;15.10;99.90
5457;DHT22;2751;49.802;9.944;2022-07-10T02:05:30;15.10;99.90
5457;DHT22;2751;49.802;9.944;2022-07-10T02:07:57;15.10;99.90
5457;DHT22;2751;49.802;9.944;2022-07-10T02:10:26;15.10;99.90
5457;DHT22;2751;49.802;9.944;2022-07-10T02:12:53;15.10;99.90
5457;DHT22;2751;49.802;9.944;2022-07-10T02:15:21;15.00;99.90
5457;DHT22;2751;49.802;9.944;2022-07-10T02:17:48;15.00;99.90
5457;DHT22;2751;49.802;9.944;2022-07-10T02:20:16;14.90;99.90
5457;DHT22;2751;49.802;9.944;2022-07-10T02:22:43;14.90;99.90
5457;DHT22;2751;49.802;9.944;2022-07-10T02:25:10;14.90;99.90
5457;DHT22;2751;49.802;9.944;2022-07-10T02:27:38;14.80;99.90
5457;DHT22;2751;49.802;9.944;2022-07-10T02:30:06;14.90;99.90
5457;DHT22;2751;49.802;9.944;2022-07-10T02:32:33;14.90;99.90
5457;DHT22;2751;49.802;9.944;2022-07-10T02:35:00;14.90;99.90
5457;DHT22;2751;49.802;9.944;2022-07-10T02:37:27;15.00;99.90
5457;DHT22;2751;49.802;9.944;2022-07-10T02:39:53;15.00;99.90
5457;DHT22;2751;49.802;9.944;2022-07-10T02:42:21;15.00;99.90
5457;DHT22;2751;49.802;9.944;2022-07-10T02:44:49;15.10;99.90
5457;DHT22;2751;49.802;9.944;2022-07-10T02:47:16;15.00;99.90
5457;DHT22;2751;49.802;9.944;2022-07-10T02:49:43;15.00;99.90
5457;DHT22;2751;49.802;9.944;2022-07-10T02:52:10;14.90;99.90
5457;DHT22;2751;49.802;9.944;2022-07-10T02:54:37;14.90;99.90
5457;DHT22;2751;49.802;9.944;2022-07-10T02:57:04;14.90;99.90
5457;DHT22;2751;49.802;9.944;2022-07-10T02:59:31;14.80;99.90
5457;DHT22;2751;49.802;9.944;2022-07-10T03:01:59;14.80;99.90
5457;DHT22;2751;49.802;9.944;2022-07-10T03:04:27;14.70;99.90
5457;DHT22;2751;49.802;9.944;2022-07-10T03:06:54;14.60;99.90
5457;DHT22;2751;49.802;9.944;2022-07-10T03:09:21;14.60;99.90
5457;DHT22;2751;49.802;9.944;2022-07-10T03:11:48;14.60;99.90
5457;DHT22;2751;49.802;9.944;2022-07-10T03:14:14;14.60;99.90
5457;DHT22;2751;49.802;9.944;2022-07-10T03:16:42;14.50;99.90
5457;DHT22;2751;49.802;9.944;2022-07-10T03:19:10;14.50;99.90
5457;DHT22;2751;49.802;9.944;2022-07-10T03:21:38;14.40;99.90
5457;DHT22;2751;49.802;9.944;2022-07-10T03:24:05;14.40;99.90
5457;DHT22;2751;49.802;9.944;2022-07-10T03:26:32;14.10;99.90
5457;DHT22;2751;49.802;9.944;2022-07-10T03:28:59;14.30;99.90
5457;DHT22;2751;49.802;9.944;2022-07-10T03:31:26;14.20;99.90
5457;DHT22;2751;49.802;9.944;2022-07-10T03:33:53;14.20;99.90
5457;DHT22;2751;49.802;9.944;2022-07-10T03:36:21;14.20;99.90
5457;DHT22;2751;49.802;9.944;2022-07-10T03:38:48;14.10;99.90
5457;DHT22;2751;49.802;9.944;2022-07-10T03:41:15;14.10;99.90
5457;DHT22;2751;49.802;9.944;2022-07-10T03:43:41;14.00;99.90
5457;DHT22;2751;49.802;9.944;2022-07-10T03:46:08;14.00;99.90
5457;DHT22;2751;49.802;9.944;2022-07-10T03:48:35;13.90;99.90
5457;DHT22;2751;49.802;9.944;2022-07-10T03:51:02;13.90;99.90
5457;DHT22;2751;49.802;9.944;2022-07-10T03:53:31;13.80;99.90
5457;DHT22;2751;49.802;9.944;2022-07-10T03:55:57;13.80;99.90
5457;DHT22;2751;49.802;9.944;2022-07-10T03:58:26;13.70;99.90
5457;DHT22;2751;49.802;9.944;2022-07-10T04:00:52;13.70;99.90
5457;DHT22;2751;49.802;9.944;2022-07-10T04:03:18;13.70;99.90
5457;DHT22;2751;49.802;9.944;2022-07-10T04:05:45;13.70;99.90
5457;DHT22;2751;49.802;9.944;2022-07-10T04:08:12;13.70;99.90
5457;DHT22;2751;49.802;9.944;2022-07-10T04:10:40;13.70;99.90
5457;DHT22;2751;49.802;9.944;2022-07-10T04:13:07;13.60;99.90
5457;DHT22;2751;49.802;9.944;2022-07-10T04:15:34;13.70;99.90
5457;DHT22;2751;49.802;9.944;2022-07-10T04:18:01;13.70;99.90
5457;DHT22;2751;49.802;9.944;2022-07-10T04:20:28;13.70;99.90
5457;DHT22;2751;49.802;9.944;2022-07-10T04:22:56;13.70;99.90
5457;DHT22;2751;49.802;9.944;2022-07-10T04:25:22;13.70;99.90
5457;DHT22;2751;49.802;9.944;2022-07-10T04:27:51;13.70;99.90
5457;DHT22;2751;49.802;9.944;2022-07-10T04:30:18;13.80;99.90
5457;DHT22;2751;49.802;9.944;2022-07-10T04:32:44;13.80;99.90
5457;DHT22;2751;49.802;9.944;2022-07-10T04:35:11;13.90;99.90
5457;DHT22;2751;49.802;9.944;2022-07-10T04:37:38;13.80;99.90
5457;DHT22;2751;49.802;9.944;2022-07-10T04:40:06;13.80;99.90
5457;DHT22;2751;49.802;9.944;2022-07-10T04:42:33;13.80;99.90
5457;DHT22;2751;49.802;9.944;2022-07-10T04:45:02;13.80;99.90
5457;DHT22;2751;49.802;9.944;2022-07-10T04:47:29;13.80;99.90
5457;DHT22;2751;49.802;9.944;2022-07-10T04:49:55;13.90;99.90
5457;DHT22;2751;49.802;9.944;2022-07-10T04:52:22;13.90;99.90
5457;DHT22;2751;49.802;9.944;2022-07-10T04:54:49;14.00;99.90
5457;DHT22;2751;49.802;9.944;2022-07-10T04:57:16;14.00;99.90
5457;DHT22;2751;49.802;9.944;2022-07-10T04:59:43;14.00;99.90
5457;DHT22;2751;49.802;9.944;2022-07-10T05:02:11;14.10;99.90
5457;DHT22;2751;49.802;9.944;2022-07-10T05:04:38;14.10;99.90
5457;DHT22;2751;49.802;9.944;2022-07-10T05:07:05;14.10;99.90
5457;DHT22;2751;49.802;9.944;2022-07-10T05:09:32;14.20;99.90
5457;DHT22;2751;49.802;9.944;2022-07-10T05:11:59;14.30;99.90
5457;DHT22;2751;49.802;9.944;2022-07-10T05:14:25;14.30;99.90
5457;DHT22;2751;49.802;9.944;2022-07-10T05:16:52;14.40;99.90
5457;DHT22;2751;49.802;9.944;2022-07-10T05:19:21;14.50;99.90
5457;DHT22;2751;49.802;9.944;2022-07-10T05:21:47;14.60;99.90
5457;DHT22;2751;49.802;9.944;2022-07-10T05:24:14;14.70;99.90
5457;DHT22;2751;49.802;9.944;2022-07-10T05:26:41;14.80;99.90
5457;DHT22;2751;49.802;9.944;2022-07-10T05:29:08;14.90;99.90
5457;DHT22;2751;49.802;9.944;2022-07-10T05:31:35;14.90;99.90
5457;DHT22;2751;49.802;9.944;2022-07-10T05:34:02;15.10;99.90
5457;DHT22;2751;49.802;9.944;2022-07-10T05:36:30;15.40;99.90
5457;DHT22;2751;49.802;9.944;2022-07-10T05:38:57;15.50;99.90
5457;DHT22;2751;49.802;9.944;2022-07-10T05:41:24;15.50;99.90
5457;DHT22;2751;49.802;9.944;2022-07-10T05:43:51;15.60;99.90
5457;DHT22;2751;49.802;9.944;2022-07-10T05:46:17;15.70;99.90
5457;DHT22;2751;49.802;9.944;2022-07-10T05:48:44;15.70;99.90
5457;DHT22;2751;49.802;9.944;2022-07-10T05:51:11;15.70;99.90
5457;DHT22;2751;49.802;9.944;2022-07-10T05:53:39;15.70;99.90
5457;DHT22;2751;49.802;9.944;2022-07-10T05:56:06;15.70;99.90
5457;DHT22;2751;49.802;9.944;2022-07-10T05:58:33;15.90;99.90
5457;DHT22;2751;49.802;9.944;2022-07-10T06:01:01;15.80;99.90
5457;DHT22;2751;49.802;9.944;2022-07-10T06:03:27;15.80;99.90
5457;DHT22;2751;49.802;9.944;2022-07-10T06:05:55;15.90;99.90
5457;DHT22;2751;49.802;9.944;2022-07-10T06:08:22;15.80;99.90
5457;DHT22;2751;49.802;9.944;2022-07-10T06:10:50;15.80;99.90
5457;DHT22;2751;49.802;9.944;2022-07-10T06:13:17;16.00;99.90
5457;DHT22;2751;49.802;9.944;2022-07-10T06:15:44;16.00;99.90
5457;DHT22;2751;49.802;9.944;2022-07-10T06:18:10;16.10;99.90
5457;DHT22;2751;49.802;9.944;2022-07-10T06:20:37;16.10;99.90
5457;DHT22;2751;49.802;9.944;2022-07-10T06:23:04;16.20;99.90
5457;DHT22;2751;49.802;9.944;2022-07-10T06:25:31;16.20;99.90
5457;DHT22;2751;49.802;9.944;2022-07-10T06:27:59;16.30;99.90
5457;DHT22;2751;49.802;9.944;2022-07-10T06:30:26;16.40;99.90
5457;DHT22;2751;49.802;9.944;2022-07-10T06:32:53;16.50;99.90
5457;DHT22;2751;49.802;9.944;2022-07-10T06:35:20;16.60;99.90
5457;DHT22;2751;49.802;9.944;2022-07-10T06:37:47;16.40;99.90
5457;DHT22;2751;49.802;9.944;2022-07-10T06:40:14;16.30;99.90
5457;DHT22;2751;49.802;9.944;2022-07-10T06:42:41;16.30;99.90
5457;DHT22;2751;49.802;9.944;2022-07-10T06:45:10;16.50;99.90
5457;DHT22;2751;49.802;9.944;2022-07-10T06:47:37;16.70;99.90
5457;DHT22;2751;49.802;9.944;2022-07-10T06:50:25;16.80;99.90
5457;DHT22;2751;49.802;9.944;2022-07-10T06:52:52;17.10;99.90
5457;DHT22;2751;49.802;9.944;2022-07-10T06:55:23;17.20;99.90
5457;DHT22;2751;49.802;9.944;2022-07-10T06:57:55;17.00;99.90
5457;DHT22;2751;49.802;9.944;2022-07-10T07:00:25;16.80;99.90
5457;DHT22;2751;49.802;9.944;2022-07-10T07:02:55;16.90;99.90
5457;DHT22;2751;49.802;9.944;2022-07-10T07:05:22;16.50;99.90
5457;DHT22;2751;49.802;9.944;2022-07-10T07:07:49;16.80;99.90
5457;DHT22;2751;49.802;9.944;2022-07-10T07:10:15;16.80;99.90
5457;DHT22;2751;49.802;9.944;2022-07-10T07:12:43;16.90;99.90
5457;DHT22;2751;49.802;9.944;2022-07-10T07:15:10;17.00;99.90
5457;DHT22;2751;49.802;9.944;2022-07-10T07:17:42;17.00;99.90
5457;DHT22;2751;49.802;9.944;2022-07-10T07:20:24;17.40;99.90
5457;DHT22;2751;49.802;9.944;2022-07-10T07:23:08;17.60;99.90
5457;DHT22;2751;49.802;9.944;2022-07-10T07:25:38;17.70;99.90
5457;DHT22;2751;49.802;9.944;2022-07-10T07:28:08;17.40;99.90
5457;DHT22;2751;49.802;9.944;2022-07-10T07:30:35;17.70;99.90
5457;DHT22;2751;49.802;9.944;2022-07-10T07:33:03;17.70;99.90
5457;DHT22;2751;49.802;9.944;2022-07-10T07:35:30;17.50;99.90
5457;DHT22;2751;49.802;9.944;2022-07-10T07:37:57;17.30;99.90
5457;DHT22;2751;49.802;9.944;2022-07-10T07:40:24;17.50;99.90
5457;DHT22;2751;49.802;9.944;2022-07-10T07:42:52;17.70;99.90
5457;DHT22;2751;49.802;9.944;2022-07-10T07:45:20;18.00;98.60
5457;DHT22;2751;49.802;9.944;2022-07-10T07:47:50;18.20;98.00
5457;DHT22;2751;49.802;9.944;2022-07-10T07:50:22;18.20;96.60
5457;DHT22;2751;49.802;9.944;2022-07-10T07:52:49;18.10;96.40
5457;DHT22;2751;49.802;9.944;2022-07-10T07:55:17;17.80;97.50
5457;DHT22;2751;49.802;9.944;2022-07-10T07:57:44;17.70;96.10
5457;DHT22;2751;49.802;9.944;2022-07-10T08:00:12;17.60;96.10
5457;DHT22;2751;49.802;9.944;2022-07-10T08:02:40;17.40;94.70
5457;DHT22;2751;49.802;9.944;2022-07-10T08:05:08;17.60;94.10
5457;DHT22;2751;49.802;9.944;2022-07-10T08:07:37;17.70;93.00
5457;DHT22;2751;49.802;9.944;2022-07-10T08:10:07;18.00;91.10
5457;DHT22;2751;49.802;9.944;2022-07-10T08:12:35;18.40;90.30
5457;DHT22;2751;49.802;9.944;2022-07-10T08:15:02;18.70;88.30
5457;DHT22;2751;49.802;9.944;2022-07-10T08:17:29;19.00;84.30
5457;DHT22;2751;49.802;9.944;2022-07-10T08:19:56;19.10;81.00
5457;DHT22;2751;49.802;9.944;2022-07-10T08:22:22;19.00;81.30
5457;DHT22;2751;49.802;9.944;2022-07-10T08:24:51;19.00;80.70
5457;DHT22;2751;49.802;9.944;2022-07-10T08:27:18;19.00;82.80
5457;DHT22;2751;49.802;9.944;2022-07-10T08:29:44;18.80;82.70
5457;DHT22;2751;49.802;9.944;2022-07-10T08:32:11;18.70;86.40
5457;DHT22;2751;49.802;9.944;2022-07-10T08:34:38;18.70;87.00
5457;DHT22;2751;49.802;9.944;2022-07-10T08:37:05;18.90;87.00
5457;DHT22;2751;49.802;9.944;2022-07-10T08:39:33;19.10;85.20
5457;DHT22;2751;49.802;9.944;2022-07-10T08:42:02;19.10;83.40
5457;DHT22;2751;49.802;9.944;2022-07-10T08:44:31;19.30;82.20
5457;DHT22;2751;49.802;9.944;2022-07-10T08:46:58;18.90;80.50
5457;DHT22;2751;49.802;9.944;2022-07-10T08:49:27;18.90;80.30
5457;DHT22;2751;49.802;9.944;2022-07-10T08:51:58;18.80;79.80
5457;DHT22;2751;49.802;9.944;2022-07-10T08:54:28;19.40;79.70
5457;DHT22;2751;49.802;9.944;2022-07-10T08:56:56;19.70;79.00
5457;DHT22;2751;49.802;9.944;2022-07-10T08:59:25;19.70;77.60
5457;DHT22;2751;49.802;9.944;2022-07-10T09:01:53;19.60;76.90
5457;DHT22;2751;49.802;9.944;2022-07-10T09:04:21;19.40;76.20
5457;DHT22;2751;49.802;9.944;2022-07-10T09:06:49;19.30;76.20
5457;DHT22;2751;49.802;9.944;2022-07-10T09:09:17;19.30;75.50
5457;DHT22;2751;49.802;9.944;2022-07-10T09:11:44;19.30;76.30
5457;DHT22;2751;49.802;9.944;2022-07-10T09:14:14;19.20;75.40
5457;DHT22;2751;49.802;9.944;2022-07-10T09:16:44;19.20;76.30
5457;DHT22;2751;49.802;9.944;2022-07-10T09:19:16;19.20;75.90
5457;DHT22;2751;49.802;9.944;2022-07-10T09:21:45;19.10;76.10
5457;DHT22;2751;49.802;9.944;2022-07-10T09:24:12;19.10;76.80
5457;DHT22;2751;49.802;9.944;2022-07-10T09:26:40;19.00;76.40
5457;DHT22;2751;49.802;9.944;2022-07-10T09:29:08;19.20;77.00
5457;DHT22;2751;49.802;9.944;2022-07-10T09:31:50;19.40;76.10
5457;DHT22;2751;49.802;9.944;2022-07-10T09:34:17;19.50;75.70
5457;DHT22;2751;49.802;9.944;2022-07-10T09:36:44;19.40;77.80
5457;DHT22;2751;49.802;9.944;2022-07-10T09:39:11;19.30;75.60
5457;DHT22;2751;49.802;9.944;2022-07-10T09:41:38;19.30;75.40
5457;DHT22;2751;49.802;9.944;2022-07-10T09:44:06;19.30;75.80
5457;DHT22;2751;49.802;9.944;2022-07-10T09:46:35;19.40;76.00
5457;DHT22;2751;49.802;9.944;2022-07-10T09:49:06;19.40;75.90
5457;DHT22;2751;49.802;9.944;2022-07-10T09:51:34;19.40;76.90
5457;DHT22;2751;49.802;9.944;2022-07-10T09:54:04;19.80;75.70
5457;DHT22;2751;49.802;9.944;2022-07-10T09:56:38;20.10;74.80
5457;DHT22;2751;49.802;9.944;2022-07-10T09:59:09;19.80;74.70
5457;DHT22;2751;49.802;9.944;2022-07-10T10:01:36;19.90;74.80
5457;DHT22;2751;49.802;9.944;2022-07-10T10:04:06;19.70;74.10
5457;DHT22;2751;49.802;9.944;2022-07-10T10:06:36;19.90;74.70
5457;DHT22;2751;49.802;9.944;2022-07-10T10:09:04;20.20;73.30
5457;DHT22;2751;49.802;9.944;2022-07-10T10:11:35;20.40;73.10
5457;DHT22;2751;49.802;9.944;2022-07-10T10:14:06;20.80;71.40
5457;DHT22;2751;49.802;9.944;2022-07-10T10:16:35;21.10;71.20
5457;DHT22;2751;49.802;9.944;2022-07-10T10:19:02;21.20;70.40
5457;DHT22;2751;49.802;9.944;2022-07-10T10:21:48;21.10;69.70
5457;DHT22;2751;49.802;9.944;2022-07-10T10:24:16;21.30;69.40
5457;DHT22;2751;49.802;9.944;2022-07-10T10:26:44;21.50;68.00
5457;DHT22;2751;49.802;9.944;2022-07-10T10:29:12;21.30;68.20
5457;DHT22;2751;49.802;9.944;2022-07-10T10:31:39;21.50;69.10
5457;DHT22;2751;49.802;9.944;2022-07-10T10:34:06;21.50;67.60
5457;DHT22;2751;49.802;9.944;2022-07-10T10:36:45;21.30;67.70
5457;DHT22;2751;49.802;9.944;2022-07-10T10:39:17;21.10;68.10
5457;DHT22;2751;49.802;9.944;2022-07-10T10:41:49;21.00;69.30
5457;DHT22;2751;49.802;9.944;2022-07-10T10:44:25;21.40;68.90
5457;DHT22;2751;49.802;9.944;2022-07-10T10:46:56;22.10;67.10
5457;DHT22;2751;49.802;9.944;2022-07-10T10:49:51;22.60;65.50
5457;DHT22;2751;49.802;9.944;2022-07-10T10:52:19;23.10;64.30
5457;DHT22;2751;49.802;9.944;2022-07-10T10:55:02;23.90;62.30
5457;DHT22;2751;49.802;9.944;2022-07-10T10:57:36;23.70;61.20
5457;DHT22;2751;49.802;9.944;2022-07-10T11:00:06;23.50;61.20
5457;DHT22;2751;49.802;9.944;2022-07-10T11:02:35;22.40;62.20
5457;DHT22;2751;49.802;9.944;2022-07-10T11:05:40;22.60;62.90
5457;DHT22;2751;49.802;9.944;2022-07-10T11:08:10;24.00;59.70
5457;DHT22;2751;49.802;9.944;2022-07-10T11:10:41;24.20;59.20
5457;DHT22;2751;49.802;9.944;2022-07-10T11:13:08;24.60;58.00
5457;DHT22;2751;49.802;9.944;2022-07-10T11:15:38;24.50;58.00
5457;DHT22;2751;49.802;9.944;2022-07-10T11:18:07;23.40;58.90
5457;DHT22;2751;49.802;9.944;2022-07-10T11:20:36;22.70;59.40
5457;DHT22;2751;49.802;9.944;2022-07-10T11:23:17;22.50;60.20
5457;DHT22;2751;49.802;9.944;2022-07-10T11:25:53;22.60;60.90
5457;DHT22;2751;49.802;9.944;2022-07-10T11:28:38;22.70;61.40
5457;DHT22;2751;49.802;9.944;2022-07-10T11:31:07;22.30;61.50
5457;DHT22;2751;49.802;9.944;2022-07-10T11:33:39;22.30;62.10
5457;DHT22;2751;49.802;9.944;2022-07-10T11:36:12;22.40;62.20
5457;DHT22;2751;49.802;9.944;2022-07-10T11:38:40;22.60;61.50
5457;DHT22;2751;49.802;9.944;2022-07-10T11:41:18;23.30;61.30
5457;DHT22;2751;49.802;9.944;2022-07-10T11:43:50;25.10;58.50
5457;DHT22;2751;49.802;9.944;2022-07-10T11:46:18;27.00;54.80
5457;DHT22;2751;49.802;9.944;2022-07-10T11:48:46;27.00;53.50
5457;DHT22;2751;49.802;9.944;2022-07-10T11:51:26;26.00;52.50
5457;DHT22;2751;49.802;9.944;2022-07-10T11:53:59;25.10;52.70
5457;DHT22;2751;49.802;9.944;2022-07-10T11:56:29;24.20;53.70
5457;DHT22;2751;49.802;9.944;2022-07-10T11:59:00;23.60;54.20
5457;DHT22;2751;49.802;9.944;2022-07-10T12:01:28;22.90;55.30
5457;DHT22;2751;49.802;9.944;2022-07-10T12:03:59;23.00;55.10
5457;DHT22;2751;49.802;9.944;2022-07-10T12:06:30;22.80;56.20
5457;DHT22;2751;49.802;9.944;2022-07-10T12:09:02;22.80;56.80
5457;DHT22;2751;49.802;9.944;2022-07-10T12:11:30;22.80;56.80
5457;DHT22;2751;49.802;9.944;2022-07-10T12:14:13;22.50;57.30
5457;DHT22;2751;49.802;9.944;2022-07-10T12:16:42;22.30;58.20
5457;DHT22;2751;49.802;9.944;2022-07-10T12:19:11;21.90;59.30
5457;DHT22;2751;49.802;9.944;2022-07-10T12:21:40;22.30;58.80
5457;DHT22;2751;49.802;9.944;2022-07-10T12:24:08;23.00;57.80
5457;DHT22;2751;49.802;9.944;2022-07-10T12:26:38;23.30;57.70
5457;DHT22;2751;49.802;9.944;2022-07-10T12:29:06;25.20;54.90
5457;DHT22;2751;49.802;9.944;2022-07-10T12:31:34;25.30;1.00
5457;DHT22;2751;49.802;9.944;2022-07-10T12:34:05;24.20;99.90
5457;DHT22;2751;49.802;9.944;2022-07-10T12:36:44;23.50;99.90
5457;DHT22;2751;49.802;9.944;2022-07-10T12:39:11;23.00;99.90
5457;DHT22;2751;49.802;9.944;2022-07-10T12:41:56;22.60;99.90
5457;DHT22;2751;49.802;9.944;2022-07-10T12:44:35;23.40;99.90
5457;DHT22;2751;49.802;9.944;2022-07-10T12:47:03;23.60;99.90
5457;DHT22;2751;49.802;9.944;2022-07-10T12:49:48;23.90;99.90
5457;DHT22;2751;49.802;9.944;2022-07-10T12:52:20;25.50;1.00
5457;DHT22;2751;49.802;9.944;2022-07-10T12:54:47;24.30;99.90
5457;DHT22;2751;49.802;9.944;2022-07-10T12:57:15;24.40;99.90
5457;DHT22;2751;49.802;9.944;2022-07-10T12:59:42;24.10;99.90
5457;DHT22;2751;49.802;9.944;2022-07-10T13:02:17;24.80;1.00
5457;DHT22;2751;49.802;9.944;2022-07-10T13:04:54;27.40;1.00
5457;DHT22;2751;49.802;9.944;2022-07-10T13:07:29;27.30;1.00
5457;DHT22;2751;49.802;9.944;2022-07-10T13:09:59;27.70;1.00
5457;DHT22;2751;49.802;9.944;2022-07-10T13:12:27;28.20;1.00
5457;DHT22;2751;49.802;9.944;2022-07-10T13:14:54;26.80;1.00
5457;DHT22;2751;49.802;9.944;2022-07-10T13:17:21;27.00;1.00
5457;DHT22;2751;49.802;9.944;2022-07-10T13:19:49;26.10;1.00
5457;DHT22;2751;49.802;9.944;2022-07-10T13:22:16;25.50;1.00
5457;DHT22;2751;49.802;9.944;2022-07-10T13:24:43;25.60;1.00
5457;DHT22;2751;49.802;9.944;2022-07-10T13:27:10;27.30;1.00
5457;DHT22;2751;49.802;9.944;2022-07-10T13:29:39;29.40;1.00
5457;DHT22;2751;49.802;9.944;2022-07-10T13:32:06;29.70;1.00
5457;DHT22;2751;49.802;9.944;2022-07-10T13:34:33;29.40;1.00
5457;DHT22;2751;49.802;9.944;2022-07-10T13:37:02;28.60;1.00
5457;DHT22;2751;49.802;9.944;2022-07-10T13:39:29;27.30;1.00
5457;DHT22;2751;49.802;9.944;2022-07-10T13:41:56;26.00;1.00
5457;DHT22;2751;49.802;9.944;2022-07-10T13:44:23;26.40;1.00
5457;DHT22;2751;49.802;9.944;2022-07-10T13:46:51;26.80;1.00
5457;DHT22;2751;49.802;9.944;2022-07-10T13:49:18;28.50;1.00
5457;DHT22;2751;49.802;9.944;2022-07-10T13:51:45;29.70;1.00
5457;DHT22;2751;49.802;9.944;2022-07-10T13:54:12;29.40;1.00
5457;DHT22;2751;49.802;9.944;2022-07-10T13:56:39;28.30;1.00
5457;DHT22;2751;49.802;9.944;2022-07-10T13:59:09;27.60;1.00
5457;DHT22;2751;49.802;9.944;2022-07-10T14:01:35;28.50;1.00
5457;DHT22;2751;49.802;9.944;2022-07-10T14:04:04;31.40;1.00
5457;DHT22;2751;49.802;9.944;2022-07-10T14:06:31;33.30;1.00
5457;DHT22;2751;49.802;9.944;2022-07-10T14:08:58;33.30;1.00
5457;DHT22;2751;49.802;9.944;2022-07-10T14:11:25;33.70;1.00
5457;DHT22;2751;49.802;9.944;2022-07-10T14:13:52;33.70;1.00
5457;DHT22;2751;49.802;9.944;2022-07-10T14:16:19;32.10;1.00
5457;DHT22;2751;49.802;9.944;2022-07-10T14:18:46;32.20;1.00
5457;DHT22;2751;49.802;9.944;2022-07-10T14:21:15;31.20;1.00
5457;DHT22;2751;49.802;9.944;2022-07-10T14:23:43;29.20;1.00
5457;DHT22;2751;49.802;9.944;2022-07-10T14:26:11;27.90;1.00
5457;DHT22;2751;49.802;9.944;2022-07-10T14:28:52;28.60;1.00
5457;DHT22;2751;49.802;9.944;2022-07-10T14:31:20;29.20;1.00
5457;DHT22;2751;49.802;9.944;2022-07-10T14:33:47;28.40;1.00
5457;DHT22;2751;49.802;9.944;2022-07-10T14:36:16;28.70;1.00
5457;DHT22;2751;49.802;9.944;2022-07-10T14:38:43;29.80;1.00
5457;DHT22;2751;49.802;9.944;2022-07-10T14:41:10;32.40;1.00
5457;DHT22;2751;49.802;9.944;2022-07-10T14:43:37;32.90;1.00
5457;DHT22;2751;49.802;9.944;2022-07-10T14:46:04;32.40;1.00
5457;DHT22;2751;49.802;9.944;2022-07-10T14:48:31;30.40;1.00
5457;DHT22;2751;49.802;9.944;2022-07-10T14:50:58;29.00;1.00
5457;DHT22;2751;49.802;9.944;2022-07-10T14:53:27;27.80;1.00
5457;DHT22;2751;49.802;9.944;2022-07-10T14:55:54;26.50;1.00
5457;DHT22;2751;49.802;9.944;2022-07-10T14:58:20;25.10;99.90
5457;DHT22;2751;49.802;9.944;2022-07-10T15:00:47;24.40;99.90
5457;DHT22;2751;49.802;9.944;2022-07-10T15:03:14;23.90;99.90
5457;DHT22;2751;49.802;9.944;2022-07-10T15:05:41;23.40;99.90
5457;DHT22;2751;49.802;9.944;2022-07-10T15:08:08;24.00;99.90
5457;DHT22;2751;49.802;9.944;2022-07-10T15:10:36;23.90;99.90
5457;DHT22;2751;49.802;9.944;2022-07-10T15:13:04;24.00;99.90
5457;DHT22;2751;49.802;9.944;2022-07-10T15:15:32;23.30;99.90
5457;DHT22;2751;49.802;9.944;2022-07-10T15:17:59;23.10;99.90
5457;DHT22;2751;49.802;9.944;2022-07-10T15:20:26;22.90;99.90
5457;DHT22;2751;49.802;9.944;2022-07-10T15:22:52;23.00;99.90
5457;DHT22;2751;49.802;9.944;2022-07-10T15:25:19;22.90;99.90
5457;DHT22;2751;49.802;9.944;2022-07-10T15:27:48;22.90;99.90
5457;DHT22;2751;49.802;9.944;2022-07-10T15:30:15;22.80;99.90
5457;DHT22;2751;49.802;9.944;2022-07-10T15:32:42;23.00;99.90
5457;DHT22;2751;49.802;9.944;2022-07-10T15:35:09;23.00;99.90
5457;DHT22;2751;49.802;9.944;2022-07-10T15:37:36;22.90;99.90
5457;DHT22;2751;49.802;9.944;2022-07-10T15:40:03;23.20;99.90
5457;DHT22;2751;49.802;9.944;2022-07-10T15:42:30;23.30;99.90
5457;DHT22;2751;49.802;9.944;2022-07-10T15:44:59;23.20;99.90
5457;DHT22;2751;49.802;9.944;2022-07-10T15:47:25;23.40;99.90
5457;DHT22;2751;49.802;9.944;2022-07-10T15:49:52;23.20;99.90
5457;DHT22;2751;49.802;9.944;2022-07-10T15:52:19;23.20;99.90
5457;DHT22;2751;49.802;9.944;2022-07-10T15:54:46;24.00;99.90
5457;DHT22;2751;49.802;9.944;2022-07-10T15:57:13;26.50;1.00
5457;DHT22;2751;49.802;9.944;2022-07-10T15:59:40;28.10;1.00
5457;DHT22;2751;49.802;9.944;2022-07-10T16:02:09;28.80;1.00
5457;DHT22;2751;49.802;9.944;2022-07-10T16:04:37;28.80;1.00
5457;DHT22;2751;49.802;9.944;2022-07-10T16:07:05;30.10;1.00
5457;DHT22;2751;49.802;9.944;2022-07-10T16:09:32;31.20;1.00
5457;DHT22;2751;49.802;9.944;2022-07-10T16:11:59;29.70;1.00
5457;DHT22;2751;49.802;9.944;2022-07-10T16:14:26;27.90;1.00